sensor_id;sensor_type;location;lat;lon;timestamp;temperature;humidity
27413;DHT22;14871;52.702;5.230;2022-07-09T00:01:36;20.30;98.60
27413;DHT22;14871;52.702;5.230;2022-07-09T00:04:01;20.30;98.60
27413;DHT22;14871;52.702;5.230;2022-07-09T00:06:27;20.20;98.70
27413;DHT22;14871;52.702;5.230;2022-07-09T00:08:52;20.30;98.60
27413;DHT22;14871;52.702;5.230;2022-07-09T00:11:18;20.30;98.60
27413;DHT22;14871;52.702;5.230;2022-07-09T00:13:43;20.20;98.80
27413;DHT22;14871;52.702;5.230;2022-07-09T00:16:09;20.20;98.90
27413;DHT22;14871;52.702;5.230;2022-07-09T00:18:34;20.20;98.70
27413;DHT22;14871;52.702;5.230;2022-07-09T00:21:00;20.20;98.80
27413;DHT22;14871;52.702;5.230;2022-07-09T00:23:26;20.20;98.70
27413;DHT22;14871;52.702;5.230;2022-07-09T00:25:51;20.10;99.00
27413;DHT22;14871;52.702;5.230;2022-07-09T00:28:18;20.10;99.00
27413;DHT22;14871;52.702;5.230;2022-07-09T00:30:44;20.00;99.30
27413;DHT22;14871;52.702;5.230;2022-07-09T00:33:09;20.00;99.50
27413;DHT22;14871;52.702;5.230;2022-07-09T00:35:35;20.00;99.40
27413;DHT22;14871;52.702;5.230;2022-07-09T00:38:00;20.00;99.50
27413;DHT22;14871;52.702;5.230;2022-07-09T00:40:26;20.00;99.40
27413;DHT22;14871;52.702;5.230;2022-07-09T00:42:51;19.90;99.30
27413;DHT22;14871;52.702;5.230;2022-07-09T00:45:17;20.00;99.30
27413;DHT22;14871;52.702;5.230;2022-07-09T00:47:43;20.00;99.10
27413;DHT22;14871;52.702;5.230;2022-07-09T00:50:09;20.00;99.00
27413;DHT22;14871;52.702;5.230;2022-07-09T00:52:36;20.00;99.00
27413;DHT22;14871;52.702;5.230;2022-07-09T00:55:03;20.00;99.00
27413;DHT22;14871;52.702;5.230;2022-07-09T00:57:30;20.00;98.90
27413;DHT22;14871;52.702;5.230;2022-07-09T00:59:57;20.00;98.90
27413;DHT22;14871;52.702;5.230;2022-07-09T01:02:23;20.00;99.10
27413;DHT22;14871;52.702;5.230;2022-07-09T01:04:49;20.00;99.70
27413;DHT22;14871;52.702;5.230;2022-07-09T01:07:14;19.90;99.40
27413;DHT22;14871;52.702;5.230;2022-07-09T01:09:40;20.00;99.50
27413;DHT22;14871;52.702;5.230;2022-07-09T01:12:07;20.00;99.60
27413;DHT22;14871;52.702;5.230;2022-07-09T01:14:33;19.90;99.70
27413;DHT22;14871;52.702;5.230;2022-07-09T01:17:00;19.80;99.90
27413;DHT22;14871;52.702;5.230;2022-07-09T01:19:27;19.80;99.90
27413;DHT22;14871;52.702;5.230;2022-07-09T01:21:53;19.90;99.80
27413;DHT22;14871;52.702;5.230;2022-07-09T01:24:19;20.00;99.80
27413;DHT22;14871;52.702;5.230;2022-07-09T01:26:45;19.90;99.90
27413;DHT22;14871;52.702;5.230;2022-07-09T01:29:11;19.90;99.90
27413;DHT22;14871;52.702;5.230;2022-07-09T01:31:37;20.10;99.50
27413;DHT22;14871;52.702;5.230;2022-07-09T01:34:02;19.90;99.90
27413;DHT22;14871;52.702;5.230;2022-07-09T01:36:28;19.80;99.90
27413;DHT22;14871;52.702;5.230;2022-07-09T01:38:53;19.90;99.90
27413;DHT22;14871;52.702;5.230;2022-07-09T01:41:19;19.90;99.90
27413;DHT22;14871;52.702;5.230;2022-07-09T01:43:44;19.90;99.90
27413;DHT22;14871;52.702;5.230;2022-07-09T01:46:10;20.00;99.90
27413;DHT22;14871;52.702;5.230;2022-07-09T01:48:36;20.00;99.90
27413;DHT22;14871;52.702;5.230;2022-07-09T01:51:02;20.00;99.90
27413;DHT22;14871;52.702;5.230;2022-07-09T01:53:27;20.10;99.90
27413;DHT22;14871;52.702;5.230;2022-07-09T01:55:53;20.00;99.90
27413;DHT22;14871;52.702;5.230;2022-07-09T01:58:19;20.00;99.90
27413;DHT22;14871;52.702;5.230;2022-07-09T02:00:45;20.00;99.90
27413;DHT22;14871;52.702;5.230;2022-07-09T02:03:10;20.00;99.90
27413;DHT22;14871;52.702;5.230;2022-07-09T02:05:36;20.10;99.90
27413;DHT22;14871;52.702;5.230;2022-07-09T02:08:01;20.10;99.90
27413;DHT22;14871;52.702;5.230;2022-07-09T02:10:27;20.20;99.90
27413;DHT22;14871;52.702;5.230;2022-07-09T02:12:53;20.20;99.70
27413;DHT22;14871;52.702;5.230;2022-07-09T02:15:18;20.10;99.90
27413;DHT22;14871;52.702;5.230;2022-07-09T02:17:44;20.10;99.80
27413;DHT22;14871;52.702;5.230;2022-07-09T02:20:10;20.10;99.90
27413;DHT22;14871;52.702;5.230;2022-07-09T02:22:37;20.10;99.90
27413;DHT22;14871;52.702;5.230;2022-07-09T02:25:03;20.20;99.90
27413;DHT22;14871;52.702;5.230;2022-07-09T02:27:28;20.20;99.90
27413;DHT22;14871;52.702;5.230;2022-07-09T02:29:54;20.10;99.90
27413;DHT22;14871;52.702;5.230;2022-07-09T02:32:19;20.10;99.90
27413;DHT22;14871;52.702;5.230;2022-07-09T02:34:45;20.20;99.90
27413;DHT22;14871;52.702;5.230;2022-07-09T02:37:10;20.30;99.80
27413;DHT22;14871;52.702;5.230;2022-07-09T02:39:36;20.20;99.90
27413;DHT22;14871;52.702;5.230;2022-07-09T02:42:02;20.30;99.70
27413;DHT22;14871;52.702;5.230;2022-07-09T02:44:27;20.40;99.60
27413;DHT22;14871;52.702;5.230;2022-07-09T02:46:53;20.30;99.70
27413;DHT22;14871;52.702;5.230;2022-07-09T02:49:19;20.30;99.70
27413;DHT22;14871;52.702;5.230;2022-07-09T02:51:46;20.30;99.80
27413;DHT22;14871;52.702;5.230;2022-07-09T02:54:12;20.20;99.90
27413;DHT22;14871;52.702;5.230;2022-07-09T02:56:37;20.20;99.90
27413;DHT22;14871;52.702;5.230;2022-07-09T02:59:03;20.20;99.90
27413;DHT22;14871;52.702;5.230;2022-07-09T03:01:28;20.10;99.90
27413;DHT22;14871;52.702;5.230;2022-07-09T03:03:54;20.20;99.90
27413;DHT22;14871;52.702;5.230;2022-07-09T03:06:20;20.10;99.90
27413;DHT22;14871;52.702;5.230;2022-07-09T03:08:45;20.20;99.90
27413;DHT22;14871;52.702;5.230;2022-07-09T03:11:11;20.20;99.90
27413;DHT22;14871;52.702;5.230;2022-07-09T03:13:37;20.30;99.90
27413;DHT22;14871;52.702;5.230;2022-07-09T03:16:03;20.30;99.70
27413;DHT22;14871;52.702;5.230;2022-07-09T03:18:29;20.20;99.80
27413;DHT22;14871;52.702;5.230;2022-07-09T03:20:55;20.30;99.80
27413;DHT22;14871;52.702;5.230;2022-07-09T03:23:21;20.30;99.80
27413;DHT22;14871;52.702;5.230;2022-07-09T03:25:46;20.30;99.80
27413;DHT22;14871;52.702;5.230;2022-07-09T03:28:12;20.30;99.80
27413;DHT22;14871;52.702;5.230;2022-07-09T03:30:38;20.30;99.60
27413;DHT22;14871;52.702;5.230;2022-07-09T03:33:03;20.20;99.80
27413;DHT22;14871;52.702;5.230;2022-07-09T03:35:29;20.30;99.70
27413;DHT22;14871;52.702;5.230;2022-07-09T03:37:54;20.20;99.90
27413;DHT22;14871;52.702;5.230;2022-07-09T03:40:20;20.20;99.80
27413;DHT22;14871;52.702;5.230;2022-07-09T03:42:46;20.30;99.90
27413;DHT22;14871;52.702;5.230;2022-07-09T03:45:11;20.20;99.90
27413;DHT22;14871;52.702;5.230;2022-07-09T03:47:37;20.10;99.90
27413;DHT22;14871;52.702;5.230;2022-07-09T03:50:03;20.10;99.90
27413;DHT22;14871;52.702;5.230;2022-07-09T03:52:29;20.10;99.90
27413;DHT22;14871;52.702;5.230;2022-07-09T03:54:55;20.10;99.90
27413;DHT22;14871;52.702;5.230;2022-07-09T03:57:21;20.10;99.90
27413;DHT22;14871;52.702;5.230;2022-07-09T03:59:46;20.10;99.90
27413;DHT22;14871;52.702;5.230;2022-07-09T04:02:12;20.10;99.90
27413;DHT22;14871;52.702;5.230;2022-07-09T04:04:37;20.00;99.90
27413;DHT22;14871;52.702;5.230;2022-07-09T04:07:03;20.00;99.90
27413;DHT22;14871;52.702;5.230;2022-07-09T04:09:30;19.90;99.90
27413;DHT22;14871;52.702;5.230;2022-07-09T04:11:56;19.90;99.90
27413;DHT22;14871;52.702;5.230;2022-07-09T04:14:21;19.90;99.90
27413;DHT22;14871;52.702;5.230;2022-07-09T04:16:47;20.00;99.90
27413;DHT22;14871;52.702;5.230;2022-07-09T04:19:12;20.00;99.90
27413;DHT22;14871;52.702;5.230;2022-07-09T04:21:38;20.10;99.90
27413;DHT22;14871;52.702;5.230;2022-07-09T04:24:04;20.20;99.90
27413;DHT22;14871;52.702;5.230;2022-07-09T04:26:29;20.20;99.90
27413;DHT22;14871;52.702;5.230;2022-07-09T04:28:55;20.10;99.90
27413;DHT22;14871;52.702;5.230;2022-07-09T04:31:20;20.20;99.70
27413;DHT22;14871;52.702;5.230;2022-07-09T04:33:47;20.20;99.80
27413;DHT22;14871;52.702;5.230;2022-07-09T04:36:13;20.10;99.90
27413;DHT22;14871;52.702;5.230;2022-07-09T04:38:38;20.10;99.90
27413;DHT22;14871;52.702;5.230;2022-07-09T04:41:04;20.00;99.90
27413;DHT22;14871;52.702;5.230;2022-07-09T04:43:31;20.10;99.90
27413;DHT22;14871;52.702;5.230;2022-07-09T04:45:56;20.10;99.90
27413;DHT22;14871;52.702;5.230;2022-07-09T04:48:22;20.20;99.90
27413;DHT22;14871;52.702;5.230;2022-07-09T04:50:49;20.20;99.80
27413;DHT22;14871;52.702;5.230;2022-07-09T04:53:15;20.20;99.90
27413;DHT22;14871;52.702;5.230;2022-07-09T04:55:40;20.10;99.90
27413;DHT22;14871;52.702;5.230;2022-07-09T04:58:06;20.10;99.90
27413;DHT22;14871;52.702;5.230;2022-07-09T05:00:32;20.10;99.90
27413;DHT22;14871;52.702;5.230;2022-07-09T05:03:00;20.10;99.90
27413;DHT22;14871;52.702;5.230;2022-07-09T05:05:25;20.20;99.90
27413;DHT22;14871;52.702;5.230;2022-07-09T05:07:52;20.20;99.90
27413;DHT22;14871;52.702;5.230;2022-07-09T05:10:18;20.30;99.90
27413;DHT22;14871;52.702;5.230;2022-07-09T05:12:45;20.20;99.90
27413;DHT22;14871;52.702;5.230;2022-07-09T05:15:12;20.20;99.90
27413;DHT22;14871;52.702;5.230;2022-07-09T05:17:38;20.10;99.90
27413;DHT22;14871;52.702;5.230;2022-07-09T05:20:06;20.10;99.90
27413;DHT22;14871;52.702;5.230;2022-07-09T05:22:32;20.10;99.90
27413;DHT22;14871;52.702;5.230;2022-07-09T05:24:58;20.20;99.90
27413;DHT22;14871;52.702;5.230;2022-07-09T05:27:25;20.20;99.90
27413;DHT22;14871;52.702;5.230;2022-07-09T05:29:51;20.20;99.90
27413;DHT22;14871;52.702;5.230;2022-07-09T05:32:16;20.30;99.90
27413;DHT22;14871;52.702;5.230;2022-07-09T05:34:42;20.20;99.90
27413;DHT22;14871;52.702;5.230;2022-07-09T05:37:08;20.10;99.90
27413;DHT22;14871;52.702;5.230;2022-07-09T05:39:33;20.20;99.90
27413;DHT22;14871;52.702;5.230;2022-07-09T05:41:59;20.20;99.90
27413;DHT22;14871;52.702;5.230;2022-07-09T05:44:25;20.20;99.90
27413;DHT22;14871;52.702;5.230;2022-07-09T05:46:50;20.30;99.90
27413;DHT22;14871;52.702;5.230;2022-07-09T05:49:16;20.20;99.90
27413;DHT22;14871;52.702;5.230;2022-07-09T05:51:41;20.30;99.90
27413;DHT22;14871;52.702;5.230;2022-07-09T05:54:07;20.20;99.90
27413;DHT22;14871;52.702;5.230;2022-07-09T05:56:33;20.20;99.90
27413;DHT22;14871;52.702;5.230;2022-07-09T05:58:59;20.30;99.90
27413;DHT22;14871;52.702;5.230;2022-07-09T06:01:25;20.30;99.90
27413;DHT22;14871;52.702;5.230;2022-07-09T06:03:51;20.30;99.90
27413;DHT22;14871;52.702;5.230;2022-07-09T06:06:16;20.40;99.90
27413;DHT22;14871;52.702;5.230;2022-07-09T06:08:42;20.40;99.90
27413;DHT22;14871;52.702;5.230;2022-07-09T06:11:07;20.40;99.90
27413;DHT22;14871;52.702;5.230;2022-07-09T06:13:33;20.50;99.90
27413;DHT22;14871;52.702;5.230;2022-07-09T06:15:58;20.50;99.90
27413;DHT22;14871;52.702;5.230;2022-07-09T06:18:24;20.60;99.90
27413;DHT22;14871;52.702;5.230;2022-07-09T06:20:50;20.60;99.90
27413;DHT22;14871;52.702;5.230;2022-07-09T06:23:15;20.70;99.90
27413;DHT22;14871;52.702;5.230;2022-07-09T06:25:41;20.80;99.90
27413;DHT22;14871;52.702;5.230;2022-07-09T06:28:07;20.80;99.90
27413;DHT22;14871;52.702;5.230;2022-07-09T06:30:33;20.90;99.90
27413;DHT22;14871;52.702;5.230;2022-07-09T06:33:02;20.90;99.90
27413;DHT22;14871;52.702;5.230;2022-07-09T06:35:27;20.90;99.90
27413;DHT22;14871;52.702;5.230;2022-07-09T06:37:53;21.10;99.90
27413;DHT22;14871;52.702;5.230;2022-07-09T06:40:18;21.10;99.90
27413;DHT22;14871;52.702;5.230;2022-07-09T06:42:44;21.10;99.90
27413;DHT22;14871;52.702;5.230;2022-07-09T06:45:10;21.20;99.90
27413;DHT22;14871;52.702;5.230;2022-07-09T06:47:36;21.20;99.90
27413;DHT22;14871;52.702;5.230;2022-07-09T06:50:01;21.30;99.80
27413;DHT22;14871;52.702;5.230;2022-07-09T06:52:27;21.20;99.70
27413;DHT22;14871;52.702;5.230;2022-07-09T06:54:53;21.30;99.60
27413;DHT22;14871;52.702;5.230;2022-07-09T06:57:19;21.40;99.50
27413;DHT22;14871;52.702;5.230;2022-07-09T06:59:44;21.40;99.30
27413;DHT22;14871;52.702;5.230;2022-07-09T07:02:13;21.40;99.20
27413;DHT22;14871;52.702;5.230;2022-07-09T07:04:41;21.40;99.10
27413;DHT22;14871;52.702;5.230;2022-07-09T07:07:07;21.50;98.90
27413;DHT22;14871;52.702;5.230;2022-07-09T07:09:33;21.50;98.80
27413;DHT22;14871;52.702;5.230;2022-07-09T07:11:59;21.50;98.60
27413;DHT22;14871;52.702;5.230;2022-07-09T07:14:24;21.60;98.50
27413;DHT22;14871;52.702;5.230;2022-07-09T07:16:50;21.60;98.40
27413;DHT22;14871;52.702;5.230;2022-07-09T07:19:16;21.60;98.30
27413;DHT22;14871;52.702;5.230;2022-07-09T07:21:42;21.60;98.20
27413;DHT22;14871;52.702;5.230;2022-07-09T07:30:39;21.80;97.10
27413;DHT22;14871;52.702;5.230;2022-07-09T07:33:04;21.70;97.30
27413;DHT22;14871;52.702;5.230;2022-07-09T07:35:30;21.80;97.20
27413;DHT22;14871;52.702;5.230;2022-07-09T07:37:56;21.90;97.00
27413;DHT22;14871;52.702;5.230;2022-07-09T07:40:27;21.90;96.80
27413;DHT22;14871;52.702;5.230;2022-07-09T07:42:53;21.90;96.70
27413;DHT22;14871;52.702;5.230;2022-07-09T07:45:18;22.00;96.50
27413;DHT22;14871;52.702;5.230;2022-07-09T07:47:45;22.00;96.50
27413;DHT22;14871;52.702;5.230;2022-07-09T07:50:10;22.10;96.50
27413;DHT22;14871;52.702;5.230;2022-07-09T07:52:36;22.00;96.40
27413;DHT22;14871;52.702;5.230;2022-07-09T07:55:02;22.10;96.10
27413;DHT22;14871;52.702;5.230;2022-07-09T07:57:27;22.20;95.70
27413;DHT22;14871;52.702;5.230;2022-07-09T07:59:53;22.30;95.40
27413;DHT22;14871;52.702;5.230;2022-07-09T08:02:18;22.30;95.50
27413;DHT22;14871;52.702;5.230;2022-07-09T08:04:44;22.40;95.50
27413;DHT22;14871;52.702;5.230;2022-07-09T08:07:10;22.50;95.10
27413;DHT22;14871;52.702;5.230;2022-07-09T08:09:35;22.50;95.00
27413;DHT22;14871;52.702;5.230;2022-07-09T08:12:01;22.50;95.00
27413;DHT22;14871;52.702;5.230;2022-07-09T08:14:26;22.60;94.80
27413;DHT22;14871;52.702;5.230;2022-07-09T08:16:53;22.60;94.70
27413;DHT22;14871;52.702;5.230;2022-07-09T08:19:18;22.50;94.60
27413;DHT22;14871;52.702;5.230;2022-07-09T08:21:44;22.60;94.20
27413;DHT22;14871;52.702;5.230;2022-07-09T08:24:10;22.60;94.30
27413;DHT22;14871;52.702;5.230;2022-07-09T08:26:35;22.70;94.20
27413;DHT22;14871;52.702;5.230;2022-07-09T08:29:01;22.70;94.20
27413;DHT22;14871;52.702;5.230;2022-07-09T08:31:27;22.60;94.00
27413;DHT22;14871;52.702;5.230;2022-07-09T08:33:52;22.50;93.90
27413;DHT22;14871;52.702;5.230;2022-07-09T08:36:18;22.50;93.70
27413;DHT22;14871;52.702;5.230;2022-07-09T08:38:44;22.40;93.80
27413;DHT22;14871;52.702;5.230;2022-07-09T08:41:10;22.40;94.00
27413;DHT22;14871;52.702;5.230;2022-07-09T08:43:37;22.60;94.30
27413;DHT22;14871;52.702;5.230;2022-07-09T08:46:04;22.70;94.30
27413;DHT22;14871;52.702;5.230;2022-07-09T08:48:34;22.90;94.30
27413;DHT22;14871;52.702;5.230;2022-07-09T08:51:00;22.90;94.20
27413;DHT22;14871;52.702;5.230;2022-07-09T08:53:27;22.90;94.20
27413;DHT22;14871;52.702;5.230;2022-07-09T08:55:53;23.00;94.00
27413;DHT22;14871;52.702;5.230;2022-07-09T08:58:19;23.10;93.60
27413;DHT22;14871;52.702;5.230;2022-07-09T09:00:48;23.10;93.20
27413;DHT22;14871;52.702;5.230;2022-07-09T09:03:13;23.10;93.20
27413;DHT22;14871;52.702;5.230;2022-07-09T09:05:39;23.10;93.30
27413;DHT22;14871;52.702;5.230;2022-07-09T09:08:25;23.20;93.50
27413;DHT22;14871;52.702;5.230;2022-07-09T09:10:52;23.10;93.20
27413;DHT22;14871;52.702;5.230;2022-07-09T09:13:17;23.10;93.60
27413;DHT22;14871;52.702;5.230;2022-07-09T09:15:43;23.20;93.20
27413;DHT22;14871;52.702;5.230;2022-07-09T09:18:09;23.20;93.50
27413;DHT22;14871;52.702;5.230;2022-07-09T09:20:36;23.30;93.40
27413;DHT22;14871;52.702;5.230;2022-07-09T09:23:02;23.60;93.10
27413;DHT22;14871;52.702;5.230;2022-07-09T09:25:30;23.60;92.90
27413;DHT22;14871;52.702;5.230;2022-07-09T09:27:59;23.70;92.90
27413;DHT22;14871;52.702;5.230;2022-07-09T09:30:27;23.80;92.70
27413;DHT22;14871;52.702;5.230;2022-07-09T09:33:04;24.00;92.60
27413;DHT22;14871;52.702;5.230;2022-07-09T09:35:33;24.30;92.00
27413;DHT22;14871;52.702;5.230;2022-07-09T09:37:59;24.30;91.40
27413;DHT22;14871;52.702;5.230;2022-07-09T09:40:25;24.40;91.30
27413;DHT22;14871;52.702;5.230;2022-07-09T09:42:52;24.50;91.40
27413;DHT22;14871;52.702;5.230;2022-07-09T09:45:23;24.70;91.00
27413;DHT22;14871;52.702;5.230;2022-07-09T09:47:51;24.90;90.60
27413;DHT22;14871;52.702;5.230;2022-07-09T09:50:22;25.00;90.40
27413;DHT22;14871;52.702;5.230;2022-07-09T09:52:52;25.20;90.20
27413;DHT22;14871;52.702;5.230;2022-07-09T09:55:20;25.20;89.70
27413;DHT22;14871;52.702;5.230;2022-07-09T09:57:46;25.20;89.60
27413;DHT22;14871;52.702;5.230;2022-07-09T10:00:14;25.20;89.60
27413;DHT22;14871;52.702;5.230;2022-07-09T10:02:43;25.20;89.50
27413;DHT22;14871;52.702;5.230;2022-07-09T10:05:09;25.30;89.40
27413;DHT22;14871;52.702;5.230;2022-07-09T10:07:35;25.30;88.60
27413;DHT22;14871;52.702;5.230;2022-07-09T10:10:02;25.40;87.60
27413;DHT22;14871;52.702;5.230;2022-07-09T10:12:34;25.40;87.10
27413;DHT22;14871;52.702;5.230;2022-07-09T10:15:00;25.20;87.70
27413;DHT22;14871;52.702;5.230;2022-07-09T10:17:27;24.90;87.60
27413;DHT22;14871;52.702;5.230;2022-07-09T10:19:56;24.80;87.60
27413;DHT22;14871;52.702;5.230;2022-07-09T10:22:40;24.50;87.90
27413;DHT22;14871;52.702;5.230;2022-07-09T10:25:11;24.40;87.80
27413;DHT22;14871;52.702;5.230;2022-07-09T10:27:43;24.40;89.30
27413;DHT22;14871;52.702;5.230;2022-07-09T10:30:31;24.60;88.30
27413;DHT22;14871;52.702;5.230;2022-07-09T10:33:08;24.80;86.30
27413;DHT22;14871;52.702;5.230;2022-07-09T10:35:47;24.80;85.80
27413;DHT22;14871;52.702;5.230;2022-07-09T10:38:16;25.00;86.70
27413;DHT22;14871;52.702;5.230;2022-07-09T10:40:44;25.10;86.40
27413;DHT22;14871;52.702;5.230;2022-07-09T10:43:11;25.30;86.90
27413;DHT22;14871;52.702;5.230;2022-07-09T10:45:41;25.60;85.60
27413;DHT22;14871;52.702;5.230;2022-07-09T10:48:09;25.90;83.10
27413;DHT22;14871;52.702;5.230;2022-07-09T10:50:45;26.00;82.40
27413;DHT22;14871;52.702;5.230;2022-07-09T10:53:14;26.40;81.70
27413;DHT22;14871;52.702;5.230;2022-07-09T10:55:43;26.50;81.30
27413;DHT22;14871;52.702;5.230;2022-07-09T10:58:17;26.80;81.20
27413;DHT22;14871;52.702;5.230;2022-07-09T11:00:43;27.00;81.00
27413;DHT22;14871;52.702;5.230;2022-07-09T11:03:10;27.00;78.40
27413;DHT22;14871;52.702;5.230;2022-07-09T11:05:45;26.80;78.30
27413;DHT22;14871;52.702;5.230;2022-07-09T11:08:11;26.80;79.90
27413;DHT22;14871;52.702;5.230;2022-07-09T11:10:38;26.80;79.70
27413;DHT22;14871;52.702;5.230;2022-07-09T11:13:06;26.90;80.10
27413;DHT22;14871;52.702;5.230;2022-07-09T11:15:35;26.90;80.00
27413;DHT22;14871;52.702;5.230;2022-07-09T11:20:27;27.20;80.20
27413;DHT22;14871;52.702;5.230;2022-07-09T11:22:54;27.20;80.00
27413;DHT22;14871;52.702;5.230;2022-07-09T11:25:23;27.30;78.70
27413;DHT22;14871;52.702;5.230;2022-07-09T11:27:50;27.30;78.90
27413;DHT22;14871;52.702;5.230;2022-07-09T11:30:16;27.30;78.60
27413;DHT22;14871;52.702;5.230;2022-07-09T11:32:43;27.20;80.30
27413;DHT22;14871;52.702;5.230;2022-07-09T11:35:10;27.00;79.80
27413;DHT22;14871;52.702;5.230;2022-07-09T11:37:36;26.70;79.60
27413;DHT22;14871;52.702;5.230;2022-07-09T11:40:03;26.40;80.10
27413;DHT22;14871;52.702;5.230;2022-07-09T11:42:28;26.10;81.00
27413;DHT22;14871;52.702;5.230;2022-07-09T11:44:56;26.00;81.20
27413;DHT22;14871;52.702;5.230;2022-07-09T11:47:36;25.90;81.30
27413;DHT22;14871;52.702;5.230;2022-07-09T11:50:09;25.70;82.00
27413;DHT22;14871;52.702;5.230;2022-07-09T11:52:36;25.60;81.60
27413;DHT22;14871;52.702;5.230;2022-07-09T11:55:07;25.60;81.30
27413;DHT22;14871;52.702;5.230;2022-07-09T11:57:34;25.50;81.00
27413;DHT22;14871;52.702;5.230;2022-07-09T12:00:01;25.70;80.90
27413;DHT22;14871;52.702;5.230;2022-07-09T12:02:32;26.10;80.20
27413;DHT22;14871;52.702;5.230;2022-07-09T12:04:59;26.40;78.90
27413;DHT22;14871;52.702;5.230;2022-07-09T12:07:25;26.50;76.70
27413;DHT22;14871;52.702;5.230;2022-07-09T12:10:15;26.80;76.50
27413;DHT22;14871;52.702;5.230;2022-07-09T12:12:41;26.90;75.10
27413;DHT22;14871;52.702;5.230;2022-07-09T12:15:07;26.90;73.80
27413;DHT22;14871;52.702;5.230;2022-07-09T12:17:34;27.00;73.70
27413;DHT22;14871;52.702;5.230;2022-07-09T12:19:59;27.20;73.80
27413;DHT22;14871;52.702;5.230;2022-07-09T12:22:26;27.50;73.00
27413;DHT22;14871;52.702;5.230;2022-07-09T12:24:52;27.70;71.20
27413;DHT22;14871;52.702;5.230;2022-07-09T12:27:18;27.80;69.90
27413;DHT22;14871;52.702;5.230;2022-07-09T12:29:45;27.80;69.00
27413;DHT22;14871;52.702;5.230;2022-07-09T12:32:11;27.80;69.60
27413;DHT22;14871;52.702;5.230;2022-07-09T12:34:37;27.80;71.10
27413;DHT22;14871;52.702;5.230;2022-07-09T12:37:02;27.80;69.50
27413;DHT22;14871;52.702;5.230;2022-07-09T12:39:28;28.00;69.80
27413;DHT22;14871;52.702;5.230;2022-07-09T12:41:54;27.90;69.30
27413;DHT22;14871;52.702;5.230;2022-07-09T12:44:19;27.90;69.10
27413;DHT22;14871;52.702;5.230;2022-07-09T12:46:45;27.90;67.70
27413;DHT22;14871;52.702;5.230;2022-07-09T12:49:11;28.00;67.60
27413;DHT22;14871;52.702;5.230;2022-07-09T12:51:36;27.80;67.20
27413;DHT22;14871;52.702;5.230;2022-07-09T12:54:02;27.80;66.80
27413;DHT22;14871;52.702;5.230;2022-07-09T12:56:28;27.70;65.80
27413;DHT22;14871;52.702;5.230;2022-07-09T12:58:53;27.80;67.10
27413;DHT22;14871;52.702;5.230;2022-07-09T13:01:19;27.90;67.80
27413;DHT22;14871;52.702;5.230;2022-07-09T13:03:45;28.10;67.80
27413;DHT22;14871;52.702;5.230;2022-07-09T13:06:10;28.10;67.00
27413;DHT22;14871;52.702;5.230;2022-07-09T13:08:55;28.10;67.60
27413;DHT22;14871;52.702;5.230;2022-07-09T13:11:21;28.20;67.20
27413;DHT22;14871;52.702;5.230;2022-07-09T13:13:46;28.20;66.40
27413;DHT22;14871;52.702;5.230;2022-07-09T13:16:12;28.20;66.30
27413;DHT22;14871;52.702;5.230;2022-07-09T13:18:38;28.20;66.20
27413;DHT22;14871;52.702;5.230;2022-07-09T13:21:03;28.00;65.70
27413;DHT22;14871;52.702;5.230;2022-07-09T13:23:31;28.00;65.60
27413;DHT22;14871;52.702;5.230;2022-07-09T13:25:57;28.10;66.90
27413;DHT22;14871;52.702;5.230;2022-07-09T13:28:23;27.90;66.80
27413;DHT22;14871;52.702;5.230;2022-07-09T13:30:48;27.90;67.20
27413;DHT22;14871;52.702;5.230;2022-07-09T13:33:14;27.80;66.20
27413;DHT22;14871;52.702;5.230;2022-07-09T13:35:40;27.80;66.00
27413;DHT22;14871;52.702;5.230;2022-07-09T13:38:07;27.80;65.50
27413;DHT22;14871;52.702;5.230;2022-07-09T13:40:32;27.80;65.20
27413;DHT22;14871;52.702;5.230;2022-07-09T13:42:58;27.70;65.20
27413;DHT22;14871;52.702;5.230;2022-07-09T13:45:24;27.70;65.70
27413;DHT22;14871;52.702;5.230;2022-07-09T13:47:49;27.70;65.50
27413;DHT22;14871;52.702;5.230;2022-07-09T13:50:15;27.50;65.40
27413;DHT22;14871;52.702;5.230;2022-07-09T13:52:41;27.50;66.90
27413;DHT22;14871;52.702;5.230;2022-07-09T13:55:07;27.30;66.00
27413;DHT22;14871;52.702;5.230;2022-07-09T13:57:33;27.20;65.60
27413;DHT22;14871;52.702;5.230;2022-07-09T13:59:58;27.30;67.30
27413;DHT22;14871;52.702;5.230;2022-07-09T14:02:24;27.30;65.70
27413;DHT22;14871;52.702;5.230;2022-07-09T14:04:50;27.10;64.80
27413;DHT22;14871;52.702;5.230;2022-07-09T14:07:16;27.20;65.80
27413;DHT22;14871;52.702;5.230;2022-07-09T14:09:42;27.40;65.40
27413;DHT22;14871;52.702;5.230;2022-07-09T14:12:08;27.50;65.90
27413;DHT22;14871;52.702;5.230;2022-07-09T14:14:34;27.50;64.20
27413;DHT22;14871;52.702;5.230;2022-07-09T14:17:00;27.60;64.90
27413;DHT22;14871;52.702;5.230;2022-07-09T14:19:26;27.60;64.10
27413;DHT22;14871;52.702;5.230;2022-07-09T14:21:52;27.40;62.90
27413;DHT22;14871;52.702;5.230;2022-07-09T14:24:17;27.10;64.10
27413;DHT22;14871;52.702;5.230;2022-07-09T14:26:43;27.10;64.50
27413;DHT22;14871;52.702;5.230;2022-07-09T14:29:12;27.10;64.40
27413;DHT22;14871;52.702;5.230;2022-07-09T14:31:37;26.90;64.50
27413;DHT22;14871;52.702;5.230;2022-07-09T14:34:03;26.70;64.80
27413;DHT22;14871;52.702;5.230;2022-07-09T14:36:29;26.70;65.40
27413;DHT22;14871;52.702;5.230;2022-07-09T14:38:55;26.70;66.10
27413;DHT22;14871;52.702;5.230;2022-07-09T14:41:21;26.80;66.40
27413;DHT22;14871;52.702;5.230;2022-07-09T14:43:46;26.60;66.50
27413;DHT22;14871;52.702;5.230;2022-07-09T14:46:12;26.50;66.50
27413;DHT22;14871;52.702;5.230;2022-07-09T14:48:38;26.20;66.10
27413;DHT22;14871;52.702;5.230;2022-07-09T14:51:05;26.00;66.80
27413;DHT22;14871;52.702;5.230;2022-07-09T14:53:32;25.80;67.30
27413;DHT22;14871;52.702;5.230;2022-07-09T14:55:58;25.70;66.60
27413;DHT22;14871;52.702;5.230;2022-07-09T14:58:23;25.50;66.10
27413;DHT22;14871;52.702;5.230;2022-07-09T15:00:49;25.50;65.50
27413;DHT22;14871;52.702;5.230;2022-07-09T15:03:14;25.40;64.60
27413;DHT22;14871;52.702;5.230;2022-07-09T15:05:40;25.50;64.00
27413;DHT22;14871;52.702;5.230;2022-07-09T15:08:06;25.50;64.10
27413;DHT22;14871;52.702;5.230;2022-07-09T15:10:35;25.60;64.20
27413;DHT22;14871;52.702;5.230;2022-07-09T15:13:01;25.70;62.60
27413;DHT22;14871;52.702;5.230;2022-07-09T15:15:28;25.80;63.10
27413;DHT22;14871;52.702;5.230;2022-07-09T15:17:53;25.70;62.70
27413;DHT22;14871;52.702;5.230;2022-07-09T15:20:19;25.80;63.00
27413;DHT22;14871;52.702;5.230;2022-07-09T15:22:44;25.70;63.10
27413;DHT22;14871;52.702;5.230;2022-07-09T15:25:10;25.70;62.60
27413;DHT22;14871;52.702;5.230;2022-07-09T15:27:36;25.80;63.00
27413;DHT22;14871;52.702;5.230;2022-07-09T15:30:03;25.90;63.30
27413;DHT22;14871;52.702;5.230;2022-07-09T15:32:29;25.90;63.30
27413;DHT22;14871;52.702;5.230;2022-07-09T15:34:55;25.80;63.00